createdAt,value
2023-02-12T00:00:10.718Z,17.15
2023-02-12T00:02:38.674Z,17.83
2023-02-12T00:05:06.043Z,16.95
2023-02-12T00:07:32.746Z,18.13
2023-02-12T00:09:59.557Z,16.80
2023-02-12T00:12:26.301Z,17.95
2023-02-12T00:14:53.023Z,17.77
2023-02-12T00:17:19.835Z,18.63
2023-02-12T00:19:48.372Z,18.80
2023-02-12T00:22:15.452Z,17.25
2023-02-12T00:24:42.412Z,17.95
2023-02-12T00:27:10.214Z,17.77
2023-02-12T00:29:37.915Z,18.25
2023-02-12T00:32:04.777Z,17.02
2023-02-12T00:34:31.547Z,16.67
2023-02-12T00:36:58.226Z,17.30
2023-02-12T00:39:26.177Z,17.52
2023-02-12T00:41:53.004Z,17.25
2023-02-12T00:44:19.756Z,17.00
2023-02-12T00:46:46.536Z,17.17
2023-02-12T00:49:14.217Z,18.42
2023-02-12T00:51:41.280Z,17.48
2023-02-12T00:54:08.018Z,18.52
2023-02-12T00:56:34.730Z,17.02
2023-02-12T00:59:01.494Z,17.95
2023-02-12T01:01:28.391Z,18.13
2023-02-12T01:03:55.347Z,18.08
2023-02-12T01:06:22.068Z,17.70
2023-02-12T01:08:53.167Z,17.77
2023-02-12T01:11:21.376Z,17.20
2023-02-12T01:13:48.098Z,15.88
2023-02-12T01:16:19.258Z,16.92
2023-02-12T01:18:46.704Z,16.65
2023-02-12T01:21:14.934Z,17.05
2023-02-12T01:23:42.717Z,18.60
2023-02-12T01:26:13.322Z,16.67
2023-02-12T01:28:41.859Z,18.75
2023-02-12T01:31:26.021Z,17.17
2023-02-12T01:33:56.406Z,18.20
2023-02-12T01:36:24.592Z,18.30
2023-02-12T01:38:52.728Z,17.77
2023-02-12T01:41:22.574Z,17.48
2023-02-12T01:44:11.284Z,17.65
2023-02-12T01:46:38.553Z,18.95
2023-02-12T01:49:09.489Z,17.77
2023-02-12T01:51:36.841Z,17.65
2023-02-12T01:54:06.972Z,18.40
2023-02-12T01:56:35.488Z,19.38
2023-02-12T01:59:02.584Z,18.73
2023-02-12T02:01:32.003Z,21.40
2023-02-12T02:04:09.800Z,19.27
2023-02-12T02:06:45.174Z,18.23
2023-02-12T02:09:12.858Z,17.45
2023-02-12T02:11:58.243Z,18.98
2023-02-12T02:14:34.170Z,17.92
2023-02-12T02:17:03.714Z,19.13
2023-02-12T02:19:55.552Z,19.15
2023-02-12T02:22:41.966Z,18.77
2023-02-12T02:25:11.817Z,17.70
2023-02-12T02:27:59.218Z,18.35
2023-02-12T02:30:35.818Z,30.02
2023-02-12T02:33:34.191Z,30.27
2023-02-12T02:36:19.092Z,19.88
2023-02-12T02:38:58.828Z,17.38
2023-02-12T02:41:33.151Z,19.30
2023-02-12T02:44:08.272Z,19.42
2023-02-12T02:46:51.548Z,18.55
2023-02-12T02:49:24.226Z,19.63
2023-02-12T02:51:55.887Z,19.80
2023-02-12T02:54:30.761Z,18.20
2023-02-12T02:57:12.437Z,20.10
2023-02-12T02:59:47.018Z,19.20
2023-02-12T03:02:21.594Z,19.17
2023-02-12T03:05:06.629Z,19.05
2023-02-12T03:07:41.886Z,19.83
2023-02-12T03:10:19.504Z,18.98
2023-02-12T03:12:52.230Z,18.90
2023-02-12T03:15:30.840Z,19.88
2023-02-12T03:17:59.874Z,21.10
2023-02-12T03:20:33.407Z,20.95
2023-02-12T03:23:18.427Z,19.92
2023-02-12T03:26:01.533Z,19.10
2023-02-12T03:28:28.357Z,19.92
2023-02-12T03:31:09.282Z,19.77
2023-02-12T03:34:01.183Z,17.92
2023-02-12T03:36:56.513Z,20.70
2023-02-12T03:39:42.319Z,19.35
2023-02-12T03:42:27.906Z,20.25
2023-02-12T03:45:32.546Z,20.30
2023-02-12T03:48:26.298Z,19.70
2023-02-12T03:51:13.790Z,16.88
2023-02-12T03:53:42.723Z,20.75
2023-02-12T03:56:32.626Z,20.95
2023-02-12T03:58:59.685Z,18.02
2023-02-12T04:01:28.600Z,18.65
2023-02-12T04:03:56.653Z,17.83
2023-02-12T04:06:26.212Z,19.38
2023-02-12T04:08:55.370Z,19.38
2023-02-12T04:11:52.647Z,18.80
2023-02-12T04:14:29.522Z,19.73
2023-02-12T04:17:18.045Z,18.95
2023-02-12T04:20:06.770Z,19.45
2023-02-12T04:22:51.139Z,20.20
2023-02-12T04:25:22.154Z,21.98
2023-02-12T04:28:06.548Z,21.42
2023-02-12T04:33:05.653Z,19.73
2023-02-12T04:35:50.078Z,19.83
2023-02-12T04:40:50.228Z,21.33
2023-02-12T04:43:27.731Z,20.92
2023-02-12T04:45:54.862Z,20.70
2023-02-12T04:48:22.253Z,19.95
2023-02-12T04:50:50.307Z,20.45
2023-02-12T04:53:17.127Z,18.20
2023-02-12T04:55:44.638Z,20.20
2023-02-12T04:58:11.690Z,20.35
2023-02-12T05:00:38.480Z,17.77
2023-02-12T05:03:05.925Z,19.33
2023-02-12T05:05:35.517Z,19.45
2023-02-12T05:08:02.409Z,19.30
2023-02-12T05:10:29.253Z,18.55
2023-02-12T05:12:56.114Z,17.85
2023-02-12T05:15:23.176Z,18.70
2023-02-12T05:17:49.926Z,19.88
2023-02-12T05:20:16.917Z,19.80
2023-02-12T05:22:47.847Z,19.92
2023-02-12T05:25:14.579Z,20.70
2023-02-12T05:27:41.297Z,20.42
2023-02-12T05:30:11.113Z,21.15
2023-02-12T05:32:38.003Z,20.13
2023-02-12T05:35:05.213Z,21.60
2023-02-12T05:37:35.193Z,21.58
2023-02-12T05:40:03.944Z,20.65
2023-02-12T05:42:30.817Z,20.45
2023-02-12T05:44:57.600Z,20.00
2023-02-12T05:47:24.370Z,19.95
2023-02-12T05:49:51.534Z,20.92
2023-02-12T05:52:18.325Z,20.45
2023-02-12T05:54:45.068Z,19.55
2023-02-12T05:57:11.807Z,20.13
2023-02-12T05:59:39.966Z,19.95
2023-02-12T06:02:06.773Z,21.55
2023-02-12T06:04:33.537Z,20.67
2023-02-12T06:07:01.021Z,21.00
2023-02-12T06:09:28.243Z,20.33
2023-02-12T06:11:55.024Z,20.40
2023-02-12T06:14:21.805Z,20.30
2023-02-12T06:16:50.588Z,19.30
2023-02-12T06:19:18.029Z,20.63
2023-02-12T06:21:44.970Z,19.25
2023-02-12T06:24:13.529Z,19.88
2023-02-12T06:26:41.583Z,20.75
2023-02-12T06:29:08.411Z,20.90
2023-02-12T06:31:37.088Z,20.88
2023-02-12T06:34:06.511Z,20.88
2023-02-12T06:36:34.162Z,21.35
2023-02-12T06:39:02.728Z,21.02
2023-02-12T06:41:29.561Z,20.77
2023-02-12T06:43:56.266Z,21.42
2023-02-12T06:46:23.606Z,22.15
2023-02-12T06:48:54.701Z,22.83
2023-02-12T06:51:23.523Z,23.33
2023-02-12T06:53:53.548Z,21.85
2023-02-12T06:56:21.971Z,21.40
2023-02-12T06:58:56.843Z,22.20
2023-02-12T07:01:26.697Z,22.15
2023-02-12T07:03:59.289Z,21.92
2023-02-12T07:06:28.237Z,23.10
2023-02-12T07:08:56.100Z,22.60
2023-02-12T07:11:27.272Z,23.25
2023-02-12T07:13:54.432Z,22.92
2023-02-12T07:16:22.601Z,28.23
2023-02-12T07:18:49.560Z,25.52
2023-02-12T07:21:17.964Z,25.33
2023-02-12T07:23:51.281Z,23.67
2023-02-12T07:26:19.510Z,25.00
2023-02-12T07:28:46.299Z,22.67
2023-02-12T07:31:19.435Z,23.77
2023-02-12T07:33:47.329Z,23.15
2023-02-12T07:36:16.810Z,23.08
2023-02-12T07:38:43.969Z,20.83
2023-02-12T07:41:19.406Z,21.13
2023-02-12T07:43:49.484Z,21.05
2023-02-12T07:46:22.526Z,20.63
2023-02-12T07:48:51.580Z,20.80
2023-02-12T07:51:21.540Z,22.65
2023-02-12T07:53:49.281Z,21.55
2023-02-12T07:56:19.633Z,22.38
2023-02-12T07:58:48.952Z,21.45
2023-02-12T08:01:30.754Z,22.85
2023-02-12T08:04:04.925Z,22.45
2023-02-12T08:06:34.613Z,24.35
2023-02-12T08:09:04.082Z,24.30
2023-02-12T08:11:31.826Z,25.10
2023-02-12T08:13:59.051Z,28.10
2023-02-12T08:16:27.767Z,26.40
2023-02-12T08:19:02.425Z,23.77
2023-02-12T08:21:34.602Z,21.58
2023-02-12T08:24:01.560Z,21.42
2023-02-12T08:26:30.863Z,20.50
2023-02-12T08:29:04.376Z,20.30
2023-02-12T08:31:33.679Z,19.70
2023-02-12T08:34:01.318Z,19.75
2023-02-12T08:36:31.221Z,23.02
2023-02-12T08:38:59.425Z,21.23
2023-02-12T08:41:28.304Z,21.33
2023-02-12T08:43:58.295Z,23.85
2023-02-12T08:46:27.336Z,22.73
2023-02-12T08:48:59.916Z,21.73
2023-02-12T08:51:29.192Z,23.17
2023-02-12T08:53:57.922Z,23.17
2023-02-12T08:56:25.732Z,24.10
2023-02-12T08:58:53.003Z,22.95
2023-02-12T09:01:22.594Z,24.67
2023-02-12T09:03:50.376Z,24.67
2023-02-12T09:06:19.319Z,45.38
2023-02-12T09:08:46.516Z,32.28
2023-02-12T09:11:24.444Z,28.73
2023-02-12T09:13:51.237Z,28.45
2023-02-12T09:16:18.041Z,27.73
2023-02-12T09:18:46.175Z,28.17
2023-02-12T09:21:16.496Z,28.90
2023-02-12T09:23:44.394Z,28.10
2023-02-12T09:26:15.667Z,30.48
2023-02-12T09:28:43.097Z,31.13
2023-02-12T09:31:13.992Z,45.03
2023-02-12T09:33:42.202Z,36.67
2023-02-12T09:36:12.250Z,37.88
2023-02-12T09:38:39.491Z,34.83
2023-02-12T09:41:24.429Z,38.78
2023-02-12T09:44:22.281Z,32.88
2023-02-12T09:46:51.814Z,32.97
2023-02-12T09:49:39.486Z,39.50
2023-02-12T09:52:10.571Z,38.60
2023-02-12T09:54:40.689Z,35.83
2023-02-12T09:57:20.203Z,34.88
2023-02-12T09:59:56.817Z,35.92
2023-02-12T10:02:24.695Z,45.17
2023-02-12T10:05:01.119Z,44.35
2023-02-12T10:07:40.562Z,36.25
2023-02-12T10:10:50.013Z,34.78
2023-02-12T10:13:39.942Z,34.42
2023-02-12T10:16:06.698Z,36.70
2023-02-12T10:18:53.084Z,37.78
2023-02-12T10:21:45.541Z,44.53
2023-02-12T10:24:40.158Z,46.10
2023-02-12T10:27:15.697Z,44.15
2023-02-12T10:29:44.639Z,42.17
2023-02-12T10:32:35.363Z,43.75
2023-02-12T10:35:15.150Z,42.90
2023-02-12T10:38:14.134Z,43.63
2023-02-12T10:40:49.068Z,37.58
2023-02-12T10:43:15.890Z,41.17
2023-02-12T10:45:44.777Z,44.28
2023-02-12T10:48:22.525Z,43.58
2023-02-12T10:51:04.511Z,41.40
2023-02-12T10:53:39.298Z,42.75
2023-02-12T10:56:12.075Z,39.42
2023-02-12T10:58:52.213Z,38.00
2023-02-12T11:01:28.947Z,37.10
2023-02-12T11:03:57.539Z,35.95
2023-02-12T11:06:32.152Z,35.10
2023-02-12T11:08:59.949Z,39.92
2023-02-12T11:11:30.745Z,42.97
2023-02-12T11:14:04.593Z,38.67
2023-02-12T11:16:35.773Z,38.67
2023-02-12T11:19:21.574Z,31.48
2023-02-12T11:21:49.574Z,30.08
2023-02-12T11:24:29.152Z,29.25
2023-02-12T11:27:16.191Z,29.48
2023-02-12T11:29:44.583Z,35.17
2023-02-12T11:32:19.763Z,35.42
2023-02-12T11:35:06.017Z,36.30
2023-02-12T11:37:36.450Z,33.65
2023-02-12T11:40:03.638Z,33.58
2023-02-12T11:42:37.885Z,37.90
2023-02-12T11:45:05.225Z,36.08
2023-02-12T11:47:36.675Z,27.90
2023-02-12T11:50:18.590Z,30.40
2023-02-12T11:52:50.680Z,31.08
2023-02-12T11:55:32.353Z,26.90
2023-02-12T11:58:22.730Z,30.00
2023-02-12T12:00:52.505Z,29.77
2023-02-12T12:03:30.474Z,30.60
2023-02-12T12:06:29.719Z,28.13
2023-02-12T12:09:26.840Z,23.05
2023-02-12T12:12:34.165Z,24.80
2023-02-12T12:15:29.500Z,23.95
2023-02-12T12:18:50.043Z,23.67
2023-02-12T12:21:35.038Z,24.23
2023-02-12T12:24:04.667Z,21.60
2023-02-12T12:26:34.575Z,21.02
2023-02-12T12:29:01.306Z,24.00
2023-02-12T12:31:46.623Z,24.90
2023-02-12T12:34:17.235Z,18.00
2023-02-12T12:37:05.091Z,16.45
2023-02-12T12:39:59.694Z,25.25
2023-02-12T12:45:28.553Z,26.50
2023-02-12T12:48:16.459Z,26.48
2023-02-12T12:51:10.926Z,27.20
2023-02-12T12:53:40.646Z,24.58
2023-02-12T12:56:33.679Z,25.83
2023-02-12T12:59:44.299Z,27.17
2023-02-12T13:02:54.704Z,27.05
2023-02-12T13:05:43.079Z,26.15
2023-02-12T13:08:28.732Z,26.05
2023-02-12T13:11:14.193Z,26.08
2023-02-12T13:13:46.424Z,27.33
2023-02-12T13:16:25.157Z,26.13
2023-02-12T13:19:03.409Z,27.33
2023-02-12T13:21:51.097Z,26.15
2023-02-12T13:24:30.060Z,26.17
2023-02-12T13:27:07.627Z,25.25
2023-02-12T13:29:50.282Z,24.65
2023-02-12T13:32:29.758Z,24.77
2023-02-12T13:34:58.972Z,26.40
2023-02-12T13:37:38.053Z,26.25
2023-02-12T13:40:14.097Z,24.27
2023-02-12T13:42:40.791Z,24.63
2023-02-12T13:45:38.768Z,24.65
2023-02-12T13:48:40.694Z,24.42
2023-02-12T13:51:31.177Z,25.77
2023-02-12T13:54:08.125Z,23.88
2023-02-12T13:56:50.449Z,24.35
2023-02-12T13:59:33.172Z,23.55
2023-02-12T14:02:06.191Z,23.55
2023-02-12T14:04:46.862Z,25.42
2023-02-12T14:07:15.792Z,24.13
2023-02-12T14:09:47.480Z,25.77
2023-02-12T14:12:30.625Z,26.02
2023-02-12T14:15:22.058Z,24.33
2023-02-12T14:17:56.576Z,24.52
2023-02-12T14:20:27.100Z,24.70
2023-02-12T14:23:04.892Z,23.77
2023-02-12T14:25:39.759Z,23.73
2023-02-12T14:28:18.865Z,25.33
2023-02-12T14:30:45.976Z,25.95
2023-02-12T14:33:25.256Z,22.88
2023-02-12T14:36:41.617Z,24.23
2023-02-12T14:39:20.417Z,23.10
2023-02-12T14:41:48.729Z,25.40
2023-02-12T14:44:20.040Z,23.75
2023-02-12T14:46:49.577Z,23.55
2023-02-12T14:49:42.372Z,22.65
2023-02-12T14:52:17.949Z,24.10
2023-02-12T14:55:06.110Z,24.85
2023-02-12T14:57:41.405Z,23.77
2023-02-12T15:00:17.379Z,23.42
2023-02-12T15:02:55.103Z,23.02
2023-02-12T15:05:23.846Z,23.75
2023-02-12T15:07:58.416Z,24.92
2023-02-12T15:10:34.655Z,24.45
2023-02-12T15:13:23.173Z,24.98
2023-02-12T15:16:00.305Z,24.60
2023-02-12T15:18:45.948Z,22.77
2023-02-12T15:21:27.985Z,23.40
2023-02-12T15:24:04.503Z,22.30
2023-02-12T15:26:35.059Z,21.70
2023-02-12T15:29:06.400Z,21.90
2023-02-12T15:31:35.033Z,22.25
2023-02-12T15:34:04.023Z,23.63
2023-02-12T15:36:33.555Z,22.25
2023-02-12T15:39:06.375Z,23.00
2023-02-12T15:41:33.067Z,22.73
2023-02-12T15:44:33.335Z,22.88
2023-02-12T15:47:00.172Z,24.00
2023-02-12T15:49:29.764Z,23.55
2023-02-12T15:51:57.753Z,24.38
2023-02-12T15:54:25.515Z,23.08
2023-02-12T15:56:53.199Z,23.75
2023-02-12T15:59:25.308Z,22.17
2023-02-12T16:01:56.747Z,24.23
2023-02-12T16:04:25.723Z,22.42
2023-02-12T16:06:52.910Z,24.70
2023-02-12T16:09:31.543Z,25.42
2023-02-12T16:12:02.257Z,25.08
2023-02-12T16:14:44.756Z,26.10
2023-02-12T16:17:22.345Z,23.90
2023-02-12T16:19:58.117Z,27.30
2023-02-12T16:22:36.761Z,26.92
2023-02-12T16:25:10.653Z,24.63
2023-02-12T16:27:37.588Z,24.73
2023-02-12T16:30:31.468Z,25.83
2023-02-12T16:32:59.662Z,26.23
2023-02-12T16:35:32.483Z,24.73
2023-02-12T16:38:16.459Z,24.15
2023-02-12T16:41:14.803Z,25.98
2023-02-12T16:43:41.709Z,24.30
2023-02-12T16:46:09.318Z,22.83
2023-02-12T16:48:44.988Z,21.08
2023-02-12T16:51:30.366Z,19.67
2023-02-12T16:54:02.115Z,21.98
2023-02-12T16:56:35.098Z,18.95
2023-02-12T16:59:02.284Z,17.15
2023-02-12T17:01:31.993Z,18.92
2023-02-12T17:04:00.876Z,17.70
2023-02-12T17:06:30.088Z,16.45
2023-02-12T17:08:57.465Z,16.90
2023-02-12T17:11:29.491Z,16.25
2023-02-12T17:13:57.221Z,15.63
2023-02-12T17:16:32.309Z,16.02
2023-02-12T17:19:00.891Z,16.05
2023-02-12T17:21:38.113Z,15.48
2023-02-12T17:24:22.151Z,17.05
2023-02-12T17:26:50.852Z,17.45
2023-02-12T17:29:19.457Z,16.75
2023-02-12T17:31:46.563Z,18.63
2023-02-12T17:34:14.068Z,19.52
2023-02-12T17:36:41.177Z,18.90
2023-02-12T17:39:10.947Z,17.60
2023-02-12T17:41:39.399Z,18.25
2023-02-12T17:44:06.286Z,17.75
2023-02-12T17:46:33.386Z,18.65
2023-02-12T17:49:00.242Z,19.23
2023-02-12T17:51:27.362Z,18.77
2023-02-12T17:53:54.138Z,18.73
2023-02-12T17:56:23.067Z,17.33
2023-02-12T17:58:50.129Z,18.15
2023-02-12T18:01:21.506Z,17.90
2023-02-12T18:03:51.468Z,18.08
2023-02-12T18:06:28.879Z,18.08
2023-02-12T18:08:57.462Z,17.45
2023-02-12T18:11:25.055Z,17.08
2023-02-12T18:13:53.679Z,18.73
2023-02-12T18:16:20.699Z,18.05
2023-02-12T18:18:47.522Z,17.75
2023-02-12T18:21:15.816Z,18.83
2023-02-12T18:23:43.653Z,17.98
2023-02-12T18:26:16.752Z,17.80
2023-02-12T18:28:43.818Z,13.10
2023-02-12T18:31:11.492Z,18.08
2023-02-12T18:33:38.867Z,17.33
2023-02-12T18:36:10.468Z,17.85
2023-02-12T18:38:39.000Z,16.05
2023-02-12T18:41:11.363Z,18.15
2023-02-12T18:43:38.415Z,17.77
2023-02-12T18:46:07.058Z,17.10
2023-02-12T18:48:33.868Z,18.85
2023-02-12T18:51:02.342Z,19.00
2023-02-12T18:53:29.187Z,18.90
2023-02-12T18:55:55.977Z,18.83
2023-02-12T18:58:23.034Z,17.73
2023-02-12T19:00:50.243Z,17.65
2023-02-12T19:03:17.244Z,18.70
2023-02-12T19:05:44.407Z,19.17
2023-02-12T19:08:11.507Z,19.15
2023-02-12T19:10:43.462Z,25.77
2023-02-12T19:13:14.918Z,26.10
2023-02-12T19:15:41.765Z,24.63
2023-02-12T19:18:08.549Z,21.55
2023-02-12T19:20:41.481Z,21.00
2023-02-12T19:23:08.714Z,19.10
2023-02-12T19:25:42.862Z,17.67
2023-02-12T19:30:39.183Z,16.50
2023-02-12T19:33:07.143Z,18.10
2023-02-12T19:35:34.497Z,15.50
2023-02-12T19:38:01.766Z,15.70
2023-02-12T19:40:28.696Z,15.68
2023-02-12T19:42:55.682Z,15.20
2023-02-12T19:45:22.465Z,15.57
2023-02-12T19:47:50.770Z,14.48
2023-02-12T19:50:17.970Z,14.23
2023-02-12T19:52:44.883Z,14.50
2023-02-12T19:55:12.025Z,14.48
2023-02-12T19:57:38.775Z,13.60
2023-02-12T20:00:08.797Z,14.52
2023-02-12T20:02:35.657Z,14.68
2023-02-12T20:05:02.415Z,12.80
2023-02-12T20:07:29.128Z,12.32
2023-02-12T20:09:55.846Z,12.77
2023-02-12T20:12:22.669Z,11.43
2023-02-12T20:14:50.940Z,10.90
2023-02-12T20:17:18.620Z,10.60
2023-02-12T20:19:46.754Z,11.80
2023-02-12T20:22:13.452Z,11.43
2023-02-12T20:24:40.204Z,11.18
2023-02-12T20:27:06.934Z,11.77
2023-02-12T20:29:36.300Z,11.73
2023-02-12T20:32:03.089Z,11.13
2023-02-12T20:34:34.774Z,10.98
2023-02-12T20:37:10.306Z,11.13
2023-02-12T20:39:37.015Z,11.55
2023-02-12T20:42:03.917Z,11.70
2023-02-12T20:44:31.086Z,9.50
2023-02-12T20:46:57.965Z,9.18
2023-02-12T20:49:30.423Z,9.55
2023-02-12T20:51:57.443Z,8.55
2023-02-12T20:54:26.056Z,9.05
2023-02-12T20:56:53.221Z,8.60
2023-02-12T20:59:20.668Z,8.70
2023-02-12T21:01:48.254Z,8.45
2023-02-12T21:04:17.329Z,10.13
2023-02-12T21:06:45.639Z,9.05
2023-02-12T21:09:14.352Z,8.20
2023-02-12T21:11:43.183Z,8.70
2023-02-12T21:14:26.008Z,8.63
2023-02-12T21:16:54.693Z,8.80
2023-02-12T21:19:22.174Z,8.05
2023-02-12T21:21:49.136Z,8.35
2023-02-12T21:24:19.841Z,9.00
2023-02-12T21:26:46.621Z,8.75
2023-02-12T21:29:13.727Z,9.25
2023-02-12T21:31:42.989Z,9.23
2023-02-12T21:39:29.401Z,8.18
2023-02-12T21:42:00.035Z,9.70
2023-02-12T21:44:27.324Z,9.73
2023-02-12T21:46:54.621Z,10.00
2023-02-12T21:49:28.433Z,9.45
2023-02-12T21:52:02.362Z,10.25
2023-02-12T21:54:30.195Z,10.75
2023-02-12T21:56:57.522Z,10.43
2023-02-12T21:59:25.008Z,10.88
2023-02-12T22:01:53.989Z,11.50
2023-02-12T22:04:20.996Z,10.85
2023-02-12T22:06:50.534Z,11.30
2023-02-12T22:09:19.832Z,11.85
2023-02-12T22:11:47.186Z,11.65
2023-02-12T22:14:16.660Z,10.85
2023-02-12T22:16:44.037Z,11.80
2023-02-12T22:19:11.245Z,12.80
2023-02-12T22:21:40.216Z,11.93
2023-02-12T22:24:09.063Z,11.75
2023-02-12T22:26:36.166Z,12.52
2023-02-12T22:29:06.571Z,12.70
2023-02-12T22:31:35.989Z,14.23
2023-02-12T22:34:05.916Z,14.18
2023-02-12T22:36:35.599Z,14.05
2023-02-12T22:39:02.986Z,14.43
2023-02-12T22:41:30.139Z,14.93
2023-02-12T22:44:00.961Z,14.90
2023-02-12T22:46:28.096Z,14.52
2023-02-12T22:48:54.828Z,15.60
2023-02-12T22:51:40.104Z,15.90
2023-02-12T22:54:08.370Z,15.68
2023-02-12T22:56:35.129Z,16.38
2023-02-12T22:59:02.568Z,17.52
2023-02-12T23:01:30.421Z,15.40
2023-02-12T23:03:57.732Z,16.08
2023-02-12T23:06:27.726Z,16.08
2023-02-12T23:08:58.955Z,15.10
2023-02-12T23:11:28.092Z,15.88
2023-02-12T23:13:55.578Z,15.98
2023-02-12T23:16:22.908Z,16.70
2023-02-12T23:18:53.491Z,16.70
2023-02-12T23:21:20.243Z,16.75
2023-02-12T23:23:46.990Z,15.82
2023-02-12T23:26:14.249Z,17.05
2023-02-12T23:28:41.013Z,17.50
2023-02-12T23:31:09.186Z,17.02
2023-02-12T23:33:37.338Z,17.27
2023-02-12T23:36:04.283Z,17.17
2023-02-12T23:38:31.201Z,16.10
2023-02-12T23:40:58.340Z,16.73
2023-02-12T23:43:25.428Z,17.42
2023-02-12T23:45:52.218Z,17.25
2023-02-12T23:48:19.039Z,16.60
2023-02-12T23:50:48.270Z,17.45
2023-02-12T23:53:17.791Z,16.17
2023-02-12T23:55:44.730Z,16.27
2023-02-12T23:58:11.757Z,17.55
